createdAt,value
2018-05-02T00:00:28.130Z,6.17
2018-05-02T00:02:55.638Z,6.13
2018-05-02T00:05:23.148Z,6.03
2018-05-02T00:07:50.692Z,5.97
2018-05-02T00:10:18.335Z,5.37
2018-05-02T00:12:45.851Z,5.53
2018-05-02T00:15:13.399Z,6.20
2018-05-02T00:17:40.921Z,5.97
2018-05-02T00:20:08.443Z,5.83
2018-05-02T00:22:35.943Z,5.77
2018-05-02T00:25:03.475Z,5.70
2018-05-02T00:27:30.973Z,5.47
2018-05-02T00:29:58.515Z,5.83
2018-05-02T00:32:26.022Z,4.77
2018-05-02T00:34:53.530Z,5.50
2018-05-02T00:37:21.036Z,5.77
2018-05-02T00:39:48.537Z,5.50
2018-05-02T00:42:16.044Z,5.67
2018-05-02T00:44:43.565Z,4.87
2018-05-02T00:47:11.069Z,5.53
2018-05-02T00:49:38.575Z,5.63
2018-05-02T00:52:06.069Z,5.27
2018-05-02T00:54:33.608Z,5.43
2018-05-02T00:57:01.112Z,5.63
2018-05-02T00:59:28.624Z,5.93
2018-05-02T01:01:56.126Z,5.47
2018-05-02T01:04:23.623Z,5.90
2018-05-02T01:06:51.126Z,5.50
2018-05-02T01:09:18.622Z,5.80
2018-05-02T01:11:46.123Z,5.80
2018-05-02T01:14:13.624Z,6.27
2018-05-02T01:16:41.122Z,5.90
2018-05-02T01:19:08.623Z,5.33
2018-05-02T01:21:36.122Z,5.43
2018-05-02T01:24:03.622Z,5.77
2018-05-02T01:26:31.119Z,6.03
2018-05-02T01:28:58.635Z,6.20
2018-05-02T01:31:26.175Z,6.23
2018-05-02T01:33:53.716Z,5.77
2018-05-02T01:36:21.216Z,6.47
2018-05-02T01:38:48.716Z,6.03
2018-05-02T01:41:16.212Z,6.13
2018-05-02T01:43:43.717Z,5.97
2018-05-02T01:46:11.224Z,5.73
2018-05-02T01:48:38.735Z,6.20
2018-05-02T01:51:06.279Z,6.40
2018-05-02T01:53:33.784Z,5.77
2018-05-02T01:56:01.293Z,6.53
2018-05-02T01:58:28.841Z,6.13
2018-05-02T02:00:56.347Z,5.67
2018-05-02T02:03:23.838Z,5.87
2018-05-02T02:05:51.412Z,6.27
2018-05-02T02:08:18.950Z,5.50
2018-05-02T02:10:46.450Z,6.07
2018-05-02T02:13:13.947Z,6.50
2018-05-02T02:15:41.446Z,5.50
2018-05-02T02:18:08.940Z,5.37
2018-05-02T02:20:36.468Z,5.33
2018-05-02T02:23:04.000Z,5.43
2018-05-02T02:25:31.499Z,5.53
2018-05-02T02:27:58.995Z,5.57
2018-05-02T02:30:26.531Z,5.60
2018-05-02T02:32:54.046Z,5.90
2018-05-02T02:35:21.547Z,5.40
2018-05-02T02:37:49.064Z,5.60
2018-05-02T02:40:16.618Z,5.77
2018-05-02T02:42:44.123Z,5.60
2018-05-02T02:45:11.630Z,5.90
2018-05-02T02:47:39.136Z,5.97
2018-05-02T02:50:06.645Z,5.63
2018-05-02T02:52:34.148Z,5.67
2018-05-02T02:55:01.660Z,6.00
2018-05-02T02:57:29.165Z,5.47
2018-05-02T02:59:56.715Z,5.80
2018-05-02T03:02:24.254Z,7.53
2018-05-02T03:04:51.747Z,7.77
2018-05-02T03:07:19.299Z,8.30
2018-05-02T03:09:46.824Z,8.97
2018-05-02T03:12:14.381Z,8.30
2018-05-02T03:14:41.891Z,6.67
2018-05-02T03:17:09.392Z,6.47
2018-05-02T03:19:36.895Z,7.80
2018-05-02T03:22:04.398Z,7.03
2018-05-02T03:24:31.909Z,6.57
2018-05-02T03:26:59.457Z,7.20
2018-05-02T03:29:26.940Z,7.23
2018-05-02T03:31:54.454Z,6.90
2018-05-02T03:34:21.964Z,7.33
2018-05-02T03:36:49.471Z,6.90
2018-05-02T03:39:16.983Z,7.60
2018-05-02T03:41:44.491Z,6.43
2018-05-02T03:44:11.990Z,7.00
2018-05-02T03:46:39.501Z,7.03
2018-05-02T03:49:07.007Z,7.60
2018-05-02T03:51:34.542Z,7.33
2018-05-02T03:54:02.056Z,8.57
2018-05-02T03:56:29.561Z,7.90
2018-05-02T03:58:57.094Z,8.00
2018-05-02T04:01:36.340Z,7.87
2018-05-02T04:04:15.543Z,6.80
2018-05-02T04:06:54.931Z,7.60
2018-05-02T04:09:23.273Z,7.07
2018-05-02T04:11:50.781Z,7.53
2018-05-02T04:14:18.323Z,6.80
2018-05-02T04:16:45.892Z,7.43
2018-05-02T04:19:13.400Z,7.57
2018-05-02T04:21:40.902Z,7.47
2018-05-02T04:24:08.398Z,8.30
2018-05-02T04:26:35.902Z,7.97
2018-05-02T04:29:03.450Z,8.80
2018-05-02T04:31:30.956Z,9.00
2018-05-02T04:33:58.460Z,8.33
2018-05-02T04:36:26.008Z,13.23
2018-05-02T04:38:53.517Z,8.00
2018-05-02T04:41:21.025Z,7.90
2018-05-02T04:43:48.531Z,8.40
2018-05-02T04:46:16.056Z,8.67
2018-05-02T04:48:43.598Z,8.70
2018-05-02T04:51:11.115Z,9.23
2018-05-02T04:53:38.631Z,8.37
2018-05-02T04:56:06.151Z,7.50
2018-05-02T04:58:33.708Z,11.17
2018-05-02T05:01:01.259Z,8.13
2018-05-02T05:03:28.770Z,7.63
2018-05-02T05:05:57.120Z,8.77
2018-05-02T05:08:24.629Z,6.53
2018-05-02T05:10:52.131Z,8.20
2018-05-02T05:13:19.635Z,6.93
2018-05-02T05:15:47.148Z,6.90
2018-05-02T05:18:14.645Z,7.33
2018-05-02T05:20:42.156Z,7.50
2018-05-02T05:23:09.674Z,6.70
2018-05-02T05:25:37.179Z,6.80
2018-05-02T05:28:04.687Z,6.13
2018-05-02T05:30:32.207Z,6.47
2018-05-02T05:32:59.740Z,6.63
2018-05-02T05:35:27.250Z,5.87
2018-05-02T05:37:54.823Z,6.70
2018-05-02T05:40:22.324Z,6.60
2018-05-02T05:42:49.829Z,6.43
2018-05-02T05:45:17.393Z,9.23
2018-05-02T05:47:44.918Z,6.33
2018-05-02T05:50:12.415Z,6.73
2018-05-02T05:52:39.936Z,6.43
2018-05-02T05:55:07.442Z,6.27
2018-05-02T05:57:34.978Z,6.50
2018-05-02T06:00:02.508Z,6.10
2018-05-02T06:02:30.012Z,6.77
2018-05-02T06:04:57.556Z,6.50
2018-05-02T06:07:25.055Z,7.00
2018-05-02T06:09:52.547Z,6.97
2018-05-02T06:12:20.088Z,6.53
2018-05-02T06:14:47.613Z,6.90
2018-05-02T06:17:15.144Z,6.65
2018-05-02T06:19:42.650Z,8.52
2018-05-02T06:22:10.229Z,9.02
2018-05-02T06:24:37.736Z,8.85
2018-05-02T06:27:05.271Z,8.00
2018-05-02T06:29:32.848Z,8.45
2018-05-02T06:32:00.521Z,7.87
2018-05-02T06:34:27.910Z,7.85
2018-05-02T06:36:55.540Z,8.00
2018-05-02T06:39:23.089Z,8.63
2018-05-02T06:41:50.597Z,9.23
2018-05-02T06:44:18.160Z,8.15
2018-05-02T06:46:45.683Z,8.55
2018-05-02T06:49:13.257Z,7.90
2018-05-02T06:51:40.716Z,8.38
2018-05-02T06:54:08.225Z,8.00
2018-05-02T06:56:35.740Z,7.43
2018-05-02T06:59:03.248Z,7.43
2018-05-02T07:01:30.781Z,8.05
2018-05-02T07:03:58.310Z,8.27
2018-05-02T07:06:25.863Z,8.30
2018-05-02T07:08:53.380Z,8.23
2018-05-02T07:11:20.913Z,8.10
2018-05-02T07:13:48.419Z,8.13
2018-05-02T07:16:15.918Z,7.95
2018-05-02T07:18:43.433Z,7.18
2018-05-02T07:21:10.941Z,7.78
2018-05-02T07:23:38.447Z,7.57
2018-05-02T07:26:05.975Z,7.95
2018-05-02T07:28:33.476Z,7.40
2018-05-02T07:31:01.002Z,7.30
2018-05-02T07:33:28.503Z,6.82
2018-05-02T07:35:56.007Z,7.05
2018-05-02T07:38:23.506Z,7.05
2018-05-02T07:40:51.003Z,6.50
2018-05-02T07:43:18.512Z,6.95
2018-05-02T07:45:46.047Z,6.90
2018-05-02T07:48:13.559Z,6.85
2018-05-02T07:50:41.075Z,6.78
2018-05-02T07:53:08.615Z,7.90
2018-05-02T07:55:36.119Z,8.00
2018-05-02T07:58:03.656Z,7.32
2018-05-02T08:00:31.169Z,7.82
2018-05-02T08:02:58.695Z,6.12
2018-05-02T08:05:26.207Z,6.70
2018-05-02T08:07:53.716Z,6.72
2018-05-02T08:10:21.225Z,7.00
2018-05-02T08:12:48.737Z,6.45
2018-05-02T08:15:16.252Z,7.20
2018-05-02T08:17:43.755Z,6.32
2018-05-02T08:20:11.271Z,7.10
2018-05-02T08:22:38.829Z,7.00
2018-05-02T08:25:06.360Z,6.35
2018-05-02T08:27:34.077Z,6.60
2018-05-02T08:30:01.574Z,6.82
2018-05-02T08:32:29.119Z,6.00
2018-05-02T08:34:57.606Z,6.00
2018-05-02T08:37:25.232Z,6.68
2018-05-02T08:39:53.052Z,6.15
2018-05-02T08:42:20.600Z,6.43
2018-05-02T08:44:48.107Z,6.55
2018-05-02T08:47:15.651Z,5.95
2018-05-02T08:49:43.206Z,5.45
2018-05-02T08:52:10.719Z,6.25
2018-05-02T08:54:38.229Z,5.90
2018-05-02T08:57:05.742Z,5.68
2018-05-02T08:59:33.261Z,5.68
2018-05-02T09:02:01.227Z,5.95
2018-05-02T09:04:28.732Z,5.70
2018-05-02T09:06:56.383Z,5.90
2018-05-02T09:09:24.303Z,6.07
2018-05-02T09:11:51.802Z,6.10
2018-05-02T09:14:19.349Z,5.87
2018-05-02T09:16:46.848Z,5.37
2018-05-02T09:19:14.354Z,5.65
2018-05-02T09:21:41.853Z,6.10
2018-05-02T09:24:09.362Z,5.80
2018-05-02T09:26:36.877Z,5.82
2018-05-02T09:29:04.387Z,5.90
2018-05-02T09:31:31.944Z,5.60
2018-05-02T09:33:59.516Z,5.75
2018-05-02T09:36:27.024Z,5.68
2018-05-02T09:38:54.580Z,5.80
2018-05-02T09:41:22.093Z,6.32
2018-05-02T09:43:49.596Z,6.72
2018-05-02T09:46:17.448Z,5.95
2018-05-02T09:48:45.002Z,6.05
2018-05-02T09:51:12.504Z,5.93
2018-05-02T09:53:40.069Z,5.40
2018-05-02T09:56:07.571Z,5.65
2018-05-02T09:58:35.092Z,5.62
2018-05-02T10:01:02.642Z,6.25
2018-05-02T10:03:30.170Z,6.57
2018-05-02T10:05:57.717Z,5.78
2018-05-02T10:08:25.215Z,6.03
2018-05-02T10:10:53.012Z,5.95
2018-05-02T10:13:20.608Z,5.90
2018-05-02T10:15:48.127Z,5.93
2018-05-02T10:18:15.631Z,6.32
2018-05-02T10:20:43.161Z,6.30
2018-05-02T10:23:10.709Z,7.12
2018-05-02T10:25:38.255Z,6.80
2018-05-02T10:28:05.791Z,5.55
2018-05-02T10:30:33.396Z,7.45
2018-05-02T10:33:00.942Z,6.35
2018-05-02T10:35:28.486Z,6.50
2018-05-02T10:37:56.037Z,7.55
2018-05-02T10:40:23.622Z,6.35
2018-05-02T10:42:51.187Z,6.62
2018-05-02T10:45:18.691Z,6.45
2018-05-02T10:47:47.283Z,5.43
2018-05-02T10:50:14.800Z,6.68
2018-05-02T10:52:42.343Z,5.12
2018-05-02T10:55:09.857Z,5.30
2018-05-02T10:57:38.734Z,5.22
2018-05-02T11:00:06.294Z,5.47
2018-05-02T11:02:33.791Z,5.65
2018-05-02T11:05:01.307Z,4.93
2018-05-02T11:07:28.824Z,5.10
2018-05-02T11:09:56.382Z,5.80
2018-05-02T11:12:23.952Z,5.68
2018-05-02T11:14:51.477Z,5.10
2018-05-02T11:17:19.053Z,5.40
2018-05-02T11:19:46.555Z,5.60
2018-05-02T11:22:14.114Z,5.50
2018-05-02T11:24:41.631Z,5.05
2018-05-02T11:27:09.171Z,5.55
2018-05-02T11:29:36.682Z,4.93
2018-05-02T11:32:04.186Z,5.47
2018-05-02T11:34:31.700Z,5.05
2018-05-02T11:36:59.225Z,4.70
2018-05-02T11:39:26.746Z,5.00
2018-05-02T11:41:54.303Z,5.47
2018-05-02T11:44:21.812Z,4.57
2018-05-02T11:46:49.332Z,4.70
2018-05-02T11:49:16.835Z,4.87
2018-05-02T11:51:44.343Z,5.28
2018-05-02T11:54:11.888Z,5.00
2018-05-02T11:56:40.280Z,5.50
2018-05-02T11:59:07.883Z,4.80
2018-05-02T12:01:35.366Z,4.57
2018-05-02T12:04:02.888Z,4.85
2018-05-02T12:06:30.438Z,4.20
2018-05-02T12:08:58.000Z,4.28
2018-05-02T12:11:25.506Z,4.97
2018-05-02T12:13:53.012Z,4.35
2018-05-02T12:16:20.516Z,3.65
2018-05-02T12:18:48.032Z,3.90
2018-05-02T12:21:15.582Z,3.55
2018-05-02T12:23:43.963Z,3.45
2018-05-02T12:26:11.481Z,3.72
2018-05-02T12:28:39.004Z,3.60
2018-05-02T12:31:06.517Z,4.50
2018-05-02T12:33:34.014Z,3.85
2018-05-02T12:36:01.516Z,3.97
2018-05-02T12:38:29.058Z,3.95
2018-05-02T12:40:56.646Z,3.78
2018-05-02T12:43:24.098Z,4.30
2018-05-02T12:45:51.611Z,3.83
2018-05-02T12:48:19.196Z,5.10
2018-05-02T12:50:46.708Z,4.60
2018-05-02T12:53:14.214Z,3.80
2018-05-02T12:55:41.772Z,3.80
2018-05-02T12:58:09.272Z,4.18
2018-05-02T13:00:36.792Z,4.00
2018-05-02T13:03:04.667Z,3.78
2018-05-02T13:05:32.206Z,3.53
2018-05-02T13:07:59.712Z,3.47
2018-05-02T13:10:27.220Z,3.53
2018-05-02T13:12:54.732Z,3.30
2018-05-02T13:15:22.294Z,3.30
2018-05-02T13:17:49.826Z,3.30
2018-05-02T13:20:17.373Z,3.70
2018-05-02T13:22:44.878Z,3.67
2018-05-02T13:25:12.462Z,4.18
2018-05-02T13:27:39.995Z,3.80
2018-05-02T13:30:07.539Z,3.37
2018-05-02T13:32:35.031Z,4.05
2018-05-02T13:35:02.528Z,3.65
2018-05-02T13:37:30.028Z,3.75
2018-05-02T13:39:57.537Z,3.90
2018-05-02T13:42:25.044Z,3.57
2018-05-02T13:44:52.562Z,3.67
2018-05-02T13:47:20.121Z,3.80
2018-05-02T13:49:47.679Z,3.70
2018-05-02T13:52:15.199Z,3.77
2018-05-02T13:54:42.717Z,4.00
2018-05-02T13:57:10.223Z,4.50
2018-05-02T13:59:37.736Z,3.60
2018-05-02T14:02:05.242Z,4.10
2018-05-02T14:04:32.813Z,4.40
2018-05-02T14:07:00.315Z,4.90
2018-05-02T14:09:27.849Z,4.17
2018-05-02T14:11:55.352Z,4.07
2018-05-02T14:14:22.863Z,4.57
2018-05-02T14:16:50.375Z,4.13
2018-05-02T14:19:17.884Z,4.20
2018-05-02T14:21:45.415Z,4.10
2018-05-02T14:24:12.947Z,3.83
2018-05-02T14:26:40.486Z,4.93
2018-05-02T14:29:08.052Z,4.60
2018-05-02T14:31:35.588Z,4.47
2018-05-02T14:34:03.129Z,4.50
2018-05-02T14:36:30.627Z,4.97
2018-05-02T14:38:58.192Z,5.00
2018-05-02T14:41:25.705Z,4.90
2018-05-02T14:43:53.198Z,4.93
2018-05-02T14:46:20.751Z,5.40
2018-05-02T14:48:48.251Z,5.80
2018-05-02T14:51:15.772Z,5.87
2018-05-02T14:53:43.312Z,5.73
2018-05-02T14:56:10.824Z,5.40
2018-05-02T14:58:38.326Z,5.93
2018-05-02T15:01:05.881Z,6.27
2018-05-02T15:03:33.398Z,5.87
2018-05-02T15:06:00.934Z,5.73
2018-05-02T15:08:28.447Z,5.80
2018-05-02T15:10:56.020Z,5.13
2018-05-02T15:13:23.522Z,4.90
2018-05-02T15:15:51.073Z,4.40
2018-05-02T15:18:18.627Z,4.10
2018-05-02T15:20:46.188Z,5.37
2018-05-02T15:23:13.683Z,4.37
2018-05-02T15:25:41.227Z,4.60
2018-05-02T15:28:08.759Z,4.33
2018-05-02T15:30:36.295Z,5.03
2018-05-02T15:33:03.855Z,4.50
2018-05-02T15:35:31.366Z,4.80
2018-05-02T15:37:58.899Z,4.43
2018-05-02T15:40:26.475Z,4.77
2018-05-02T15:42:53.992Z,4.67
2018-05-02T15:45:21.500Z,4.23
2018-05-02T15:47:49.020Z,4.00
2018-05-02T15:50:16.562Z,4.57
2018-05-02T15:52:44.068Z,4.93
2018-05-02T15:55:11.588Z,5.00
2018-05-02T15:57:39.122Z,5.50
2018-05-02T16:00:06.598Z,4.90
2018-05-02T16:02:34.104Z,4.83
2018-05-02T16:05:01.657Z,4.20
2018-05-02T16:07:29.209Z,4.80
2018-05-02T16:09:56.790Z,4.80
2018-05-02T16:12:24.251Z,5.07
2018-05-02T16:14:51.742Z,5.17
2018-05-02T16:17:19.239Z,5.80
2018-05-02T16:19:48.294Z,5.00
2018-05-02T16:22:15.878Z,5.13
2018-05-02T16:24:43.375Z,4.70
2018-05-02T16:27:10.870Z,5.30
2018-05-02T16:29:38.372Z,5.30
2018-05-02T16:32:05.892Z,5.60
2018-05-02T16:34:33.398Z,5.37
2018-05-02T16:37:00.893Z,5.87
2018-05-02T16:39:28.401Z,5.50
2018-05-02T16:41:55.916Z,5.83
2018-05-02T16:44:23.427Z,5.70
2018-05-02T16:46:51.018Z,6.40
2018-05-02T16:49:18.528Z,5.93
2018-05-02T16:51:46.051Z,5.67
2018-05-02T16:54:13.559Z,6.27
2018-05-02T16:56:41.088Z,5.93
2018-05-02T16:59:08.600Z,5.80
2018-05-02T17:01:36.151Z,5.83
2018-05-02T17:04:04.031Z,5.93
2018-05-02T17:06:31.567Z,5.93
2018-05-02T17:08:59.079Z,5.77
2018-05-02T17:11:26.581Z,5.60
2018-05-02T17:13:54.075Z,6.37
2018-05-02T17:16:21.616Z,6.77
2018-05-02T17:18:49.149Z,6.37
2018-05-02T17:21:16.726Z,7.10
2018-05-02T17:23:44.238Z,6.40
2018-05-02T17:26:11.743Z,6.57
2018-05-02T17:28:39.296Z,5.80
2018-05-02T17:31:06.795Z,7.27
2018-05-02T17:33:34.331Z,7.47
2018-05-02T17:36:01.872Z,6.97
2018-05-02T17:38:29.421Z,7.40
2018-05-02T17:40:57.001Z,6.97
2018-05-02T17:43:24.489Z,5.90
2018-05-02T17:45:52.044Z,5.90
2018-05-02T17:48:19.590Z,5.80
2018-05-02T17:50:47.200Z,6.17
2018-05-02T17:53:14.708Z,5.40
2018-05-02T17:55:42.994Z,5.37
2018-05-02T17:58:10.495Z,5.70
2018-05-02T18:00:38.091Z,5.27
2018-05-02T18:03:05.591Z,5.37
2018-05-02T18:05:33.166Z,5.50
2018-05-02T18:08:00.646Z,5.53
2018-05-02T18:10:28.217Z,5.70
2018-05-02T18:12:55.738Z,6.17
2018-05-02T18:15:23.251Z,6.10
2018-05-02T18:17:50.750Z,5.67
2018-05-02T18:20:18.263Z,6.80
2018-05-02T18:22:45.825Z,6.13
2018-05-02T18:25:13.340Z,6.73
2018-05-02T18:27:40.844Z,6.47
2018-05-02T18:30:08.456Z,6.80
2018-05-02T18:32:35.964Z,6.30
2018-05-02T18:35:03.512Z,6.33
2018-05-02T18:37:31.044Z,6.07
2018-05-02T18:39:58.601Z,6.47
2018-05-02T18:42:26.122Z,7.27
2018-05-02T18:44:54.322Z,7.30
2018-05-02T18:47:21.829Z,7.47
2018-05-02T18:49:49.328Z,7.90
2018-05-02T18:52:16.846Z,7.47
2018-05-02T18:54:44.349Z,7.13
2018-05-02T18:57:12.612Z,7.00
2018-05-02T18:59:40.159Z,6.93
2018-05-02T19:02:07.663Z,6.40
2018-05-02T19:04:35.190Z,5.83
2018-05-02T19:07:02.759Z,6.43
2018-05-02T19:09:30.273Z,6.63
2018-05-02T19:11:57.803Z,5.90
2018-05-02T19:14:25.315Z,6.20
2018-05-02T19:16:52.814Z,6.50
2018-05-02T19:19:25.978Z,5.93
2018-05-02T19:21:53.496Z,6.67
2018-05-02T19:24:21.000Z,6.27
2018-05-02T19:26:48.513Z,5.90
2018-05-02T19:29:16.025Z,6.07
2018-05-02T19:31:49.097Z,5.80
2018-05-02T19:34:16.666Z,5.93
2018-05-02T19:36:44.229Z,6.53
2018-05-02T19:39:11.754Z,6.80
2018-05-02T19:41:44.688Z,5.87
2018-05-02T19:44:12.268Z,6.17
2018-05-02T19:46:39.771Z,5.77
2018-05-02T19:49:07.269Z,5.73
2018-05-02T19:51:40.358Z,5.87
2018-05-02T19:54:07.863Z,6.13
2018-05-02T19:56:36.095Z,6.10
2018-05-02T19:59:03.709Z,5.97
2018-05-02T20:01:36.770Z,5.67
2018-05-02T20:04:04.323Z,5.53
2018-05-02T20:06:31.867Z,5.53
2018-05-02T20:09:05.054Z,5.33
2018-05-02T20:11:38.211Z,6.03
2018-05-02T20:14:06.565Z,6.20
2018-05-02T20:16:34.073Z,6.50
2018-05-02T20:19:01.691Z,6.17
2018-05-02T20:21:29.142Z,5.87
2018-05-02T20:23:56.635Z,6.07
2018-05-02T20:26:24.148Z,6.50
2018-05-02T20:28:51.653Z,6.50
2018-05-02T20:31:19.319Z,6.27
2018-05-02T20:33:46.876Z,6.37
2018-05-02T20:36:14.450Z,6.30
2018-05-02T20:38:41.974Z,11.97
2018-05-02T20:41:09.496Z,11.23
2018-05-02T20:43:37.011Z,7.27
2018-05-02T20:46:04.571Z,7.20
2018-05-02T20:48:32.085Z,7.90
2018-05-02T20:50:59.626Z,7.40
2018-05-02T20:53:27.132Z,7.17
2018-05-02T20:55:54.665Z,7.27
2018-05-02T20:58:22.177Z,7.80
2018-05-02T21:00:49.722Z,8.10
2018-05-02T21:03:17.254Z,8.00
2018-05-02T21:05:44.764Z,7.60
2018-05-02T21:08:12.284Z,8.03
2018-05-02T21:10:39.801Z,7.70
2018-05-02T21:13:07.320Z,8.23
2018-05-02T21:15:34.831Z,8.50
2018-05-02T21:18:02.338Z,8.33
2018-05-02T21:20:29.880Z,8.47
2018-05-02T21:22:57.414Z,9.30
2018-05-02T21:25:24.969Z,8.97
2018-05-02T21:27:52.475Z,9.10
2018-05-02T21:30:20.059Z,8.10
2018-05-02T21:32:47.569Z,8.53
2018-05-02T21:35:15.084Z,8.00
2018-05-02T21:37:42.594Z,8.37
2018-05-02T21:40:10.116Z,9.23
2018-05-02T21:42:37.628Z,8.93
2018-05-02T21:45:05.179Z,8.53
2018-05-02T21:47:32.740Z,8.00
2018-05-02T21:50:00.307Z,7.67
2018-05-02T21:52:27.892Z,7.83
2018-05-02T21:54:55.400Z,8.23
2018-05-02T21:57:22.927Z,8.50
2018-05-02T21:59:50.452Z,8.53
2018-05-02T22:02:17.956Z,8.40
2018-05-02T22:04:46.227Z,7.77
2018-05-02T22:07:14.044Z,7.77
2018-05-02T22:09:41.564Z,8.13
2018-05-02T22:12:09.092Z,7.80
2018-05-02T22:14:36.599Z,8.00
2018-05-02T22:17:04.140Z,7.63
2018-05-02T22:19:31.754Z,7.63
2018-05-02T22:21:59.246Z,8.40
2018-05-02T22:24:26.749Z,8.00
2018-05-02T22:26:54.276Z,8.67
2018-05-02T22:29:21.791Z,7.87
2018-05-02T22:31:49.299Z,8.63
2018-05-02T22:34:16.803Z,8.77
2018-05-02T22:36:44.371Z,8.33
2018-05-02T22:39:11.928Z,8.50
2018-05-02T22:41:39.397Z,8.77
2018-05-02T22:44:06.931Z,8.47
2018-05-02T22:46:34.430Z,8.40
2018-05-02T22:49:01.935Z,8.60
2018-05-02T22:51:29.470Z,8.60
2018-05-02T22:53:56.967Z,8.43
2018-05-02T22:56:24.467Z,8.90
2018-05-02T22:58:51.984Z,8.90
2018-05-02T23:01:19.489Z,9.43
2018-05-02T23:03:47.627Z,8.10
2018-05-02T23:06:15.122Z,8.43
2018-05-02T23:08:42.630Z,9.00
2018-05-02T23:11:10.136Z,9.50
2018-05-02T23:13:37.775Z,9.63
2018-05-02T23:16:05.284Z,9.50
2018-05-02T23:18:32.785Z,9.93
2018-05-02T23:21:00.305Z,9.30
2018-05-02T23:23:27.817Z,9.10
2018-05-02T23:25:55.320Z,9.30
2018-05-02T23:28:22.823Z,8.60
2018-05-02T23:30:51.172Z,9.60
2018-05-02T23:33:18.683Z,9.17
2018-05-02T23:35:46.197Z,10.00
2018-05-02T23:38:13.699Z,9.43
2018-05-02T23:40:41.203Z,9.87
2018-05-02T23:43:08.713Z,9.23
2018-05-02T23:45:36.560Z,9.70
2018-05-02T23:48:04.067Z,9.63
2018-05-02T23:50:31.567Z,9.63
2018-05-02T23:52:59.114Z,9.37
2018-05-02T23:55:26.636Z,9.27
2018-05-02T23:57:54.147Z,9.50
